Latest Weather Observations for Camden

IDN60901

Issued at 10:51 pm EST Wednesday 12 August 2020 (issued every 10 minutes, with the page automatically refreshed every 10 minutes)

About weather observations | Map of Sydney area stations | Latest observations for Sydney area | Other Formats
Station Details ID: 068192 Name: CAMDEN AIRPORT AWS Lat: -34.04 Lon: 150.69 Height: 73.9 m
Data from the previous 72 hours. | See also: Recent months at Camden
Date/Time
EST
Temp
°C
App
Temp
°C
Dew
Point
°C
Rel
Hum
%
Delta-T
°C
Wind Press
QNH
hPa
Press
MSL
hPa
Rain since
9am
mm
Dir  Spd
km/h
Gust
km/h
Spd
kts
Gust
kts
12/10:42pm 8.7 8.4 8.6 99 0.0 CALM 0 0 0 0 1013.0 1013.1 6.2
12/10:30pm 8.7 8.4 8.6 99 0.0 CALM 0 0 0 0 1013.3 1013.4 6.2
12/10:00pm 9.8 9.8 9.7 99 0.1 CALM 0 0 0 0 1013.4 1013.5 6.2
12/09:31pm 10.2 10.3 10.1 99 0.1 CALM 0 0 0 0 1013.4 1013.5 6.2
12/09:30pm 10.3 10.4 10.1 99 0.1 CALM 0 0 0 0 1013.3 1013.4 6.2
12/09:00pm 10.6 10.7 10.3 98 0.2 CALM 0 0 0 0 1013.3 1013.4 6.2
12/08:30pm 11.6 10.8 11.0 96 0.3 WNW 6 9 3 5 1013.2 1013.3 6.2
12/08:19pm 11.8 10.8 11.0 95 0.4 SW 7 15 4 8 1013.1 1013.2 6.2
12/08:00pm 11.7 10.0 11.1 96 0.3 SE 11 24 6 13 1013.1 1013.2 5.0
12/07:54pm 12.3 10.6 11.2 93 0.6 SW 11 22 6 12 1013.7 1013.8 1.4
12/07:41pm 11.1 9.7 10.9 99 0.1 WNW 9 32 5 17 1013.8 1013.9 0.0
12/07:30pm 10.7 10.9 10.5 99 0.1 CALM 0 0 0 0 1013.0 1013.1 0.0
12/07:20pm 10.0 9.8 9.1 94 0.4 CALM 0 0 0 0 1012.9 1013.0 0.0
12/07:00pm 10.7 10.5 9.1 90 0.8 CALM 0 0 0 0 1012.7 1012.8 0.0
12/06:30pm 11.8 11.9 10.2 90 0.8 CALM 0 0 0 0 1012.5 1012.6 0.0
12/06:00pm 12.8 13.0 10.7 87 1.1 CALM 0 0 0 0 1012.4 1012.5 0.0
12/05:30pm 13.9 14.0 10.1 78 2.0 CALM 0 0 0 0 1012.2 1012.3 0.0
12/05:00pm 14.6 14.7 10.2 75 2.3 CALM 0 0 0 0 1012.2 1012.3 0.0
12/04:30pm 15.2 15.1 9.6 69 2.9 CALM 0 0 0 0 1012.0 1012.1 0.0
12/04:00pm 15.3 15.3 9.7 69 2.9 CALM 0 0 0 0 1011.9 1012.0 0.0
12/03:30pm 15.6 15.6 9.7 68 3.1 CALM 0 0 0 0 1012.0 1012.1 0.0
12/03:00pm 15.3 15.2 9.4 68 3.1 CALM 0 0 0 0 1012.1 1012.2 0.0
12/02:30pm 15.0 12.8 9.4 69 2.9 N 11 13 6 7 1012.3 1012.4 0.0
12/02:00pm 15.1 13.0 9.7 70 2.8 N 11 13 6 7 1012.5 1012.6 0.0
12/01:30pm 14.7 13.0 9.9 73 2.5 NNE 9 13 5 7 1012.7 1012.8 0.0
12/01:00pm 15.1 15.1 9.9 71 2.7 CALM 0 0 0 0 1013.0 1013.1 0.0
12/12:30pm 15.3 15.3 9.9 70 2.8 CALM 0 0 0 0 1013.7 1013.8 0.0
12/12:00pm 15.1 15.0 9.5 69 2.9 CALM 0 0 0 0 1014.2 1014.3 0.0
12/11:30am 14.5 14.5 9.7 73 2.5 CALM 0 6 0 3 1014.8 1014.9 0.0
12/11:00am 13.0 12.4 8.9 76 2.1 NNW 2 7 1 4 1015.6 1015.6 0.0
12/10:30am 11.7 11.6 9.3 85 1.2 CALM 0 6 0 3 1016.1 1016.1 0.0
12/10:00am 10.4 10.0 9.6 95 0.4 WSW 2 7 1 4 1016.7 1016.7 0.0
12/09:30am 9.1 8.9 9.0 99 0.0 CALM 0 0 0 0 1016.9 1016.9 0.0
12/09:00am 8.4 8.0 8.3 99 0.0 CALM 0 0 0 0 1017.0 1017.0 0.0
12/08:30am 7.9 7.4 7.8 99 0.0 CALM 0 0 0 0 1017.2 1017.2 0.0
12/08:05am 7.3 6.7 7.2 99 0.0 CALM 0 0 0 0 1017.3 1017.3 0.0
12/08:00am 7.1 6.4 7.0 99 0.0 CALM 0 0 0 0 1017.3 1017.3 0.0
12/07:30am 6.5 5.7 6.4 99 0.0 CALM 0 0 0 0 1017.0 1017.0 0.0
12/07:24am 6.1 5.2 6.0 99 0.0 CALM 0 0 0 0 1017.0 1017.0 0.0
12/07:11am 5.8 4.8 5.7 99 0.0 CALM 0 0 0 0 1017.1 1017.1 0.0
12/07:00am 6.3 5.4 6.2 99 0.0 CALM 0 0 0 0 1016.9 1016.9 0.0
12/06:32am 6.2 5.3 6.1 99 0.0 CALM 0 0 0 0 1016.8 1016.8 0.0
12/06:30am 6.2 5.3 6.1 99 0.0 CALM 0 0 0 0 1016.8 1016.8 0.0
12/06:00am 6.6 5.8 6.5 99 0.0 CALM 0 0 0 0 1016.8 1016.8 0.0
12/05:30am 6.7 5.9 6.6 99 0.0 CALM 0 0 0 0 1016.8 1016.8 0.0
12/05:00am 6.6 5.8 6.5 99 0.0 CALM 0 0 0 0 1017.0 1017.0 0.0
12/04:30am 6.5 5.7 6.4 99 0.0 CALM 0 0 0 0 1016.9 1016.9 0.0
12/04:00am 6.7 5.9 6.6 99 0.0 CALM 0 0 0 0 1017.1 1017.1 0.0
12/03:30am 6.9 6.2 6.8 99 0.0 CALM 0 0 0 0 1017.0 1017.0 0.0
12/03:00am 6.9 6.2 6.8 99 0.0 CALM 0 0 0 0 1017.1 1017.1 0.0
12/02:30am 6.9 6.2 6.8 99 0.0 CALM 0 0 0 0 1017.4 1017.4 0.0
12/02:25am 6.8 6.0 6.7 99 0.0 CALM 0 0 0 0 1017.5 1017.5 0.0
12/02:06am 6.9 6.2 6.8 99 0.0 CALM 0 0 0 0 1017.7 1017.7 0.0
12/02:00am 6.9 6.2 6.8 99 0.0 CALM 0 0 0 0 1017.7 1017.7 0.0
12/01:30am 7.0 5.1 6.9 99 0.0 WSW 6 9 3 5 1018.0 1018.0 0.0
12/01:00am 7.1 5.1 7.0 99 0.0 ESE 7 13 4 7 1018.2 1018.2 0.0
12/12:30am 6.8 6.0 6.7 99 0.0 CALM 0 0 0 0 1018.8 1018.8 0.0
12/12:00am 7.0 6.3 6.9 99 0.0 CALM 0 0 0 0 1018.7 1018.7 0.0
 
Date/Time
EST
Temp
°C
App
Temp
°C
Dew
Point
°C
Rel
Hum
%
Delta-T
°C
Wind Press
QNH
hPa
Press
MSL
hPa
Rain since
9am
mm
Dir  Spd
km/h
Gust
km/h
Spd
kts
Gust
kts
11/11:30pm 6.9 6.2 6.8 99 0.0 CALM 0 0 0 0 1018.7 1018.7 0.0
11/11:00pm 7.1 6.4 7.0 99 0.0 CALM 0 0 0 0 1018.6 1018.6 0.0
11/10:30pm 7.1 6.4 7.0 99 0.0 CALM 0 0 0 0 1018.6 1018.6 0.0
11/10:00pm 6.7 5.9 6.3 97 0.2 CALM 0 0 0 0 1018.6 1018.6 0.0
11/09:30pm 7.3 5.8 6.9 97 0.2 E 4 9 2 5 1018.8 1018.8 0.0
11/09:00pm 7.7 6.3 7.3 97 0.2 N 4 7 2 4 1019.8 1019.8 0.0
11/08:30pm 7.4 6.7 6.8 96 0.3 CALM 0 2 0 1 1019.8 1019.8 0.0
11/08:00pm 7.5 6.5 5.8 89 0.8 CALM 0 0 0 0 1019.2 1019.2 0.0
11/07:30pm 8.5 7.7 6.5 87 0.9 CALM 0 0 0 0 1019.0 1019.0 0.0
11/07:00pm 9.5 8.0 6.6 82 1.4 SSE 4 9 2 5 1018.9 1018.9 0.0
11/06:30pm 10.3 9.5 6.3 76 1.9 CALM 0 0 0 0 1018.4 1018.4 0.0
11/06:00pm 11.6 10.8 6.3 70 2.5 CALM 0 0 0 0 1018.1 1018.1 0.0
11/05:30pm 13.1 10.8 5.8 61 3.5 NE 7 9 4 5 1018.0 1018.0 0.0
11/05:00pm 14.1 11.0 5.5 56 4.1 NNE 11 15 6 8 1017.7 1017.7 0.0
11/04:30pm 16.1 12.6 5.4 49 5.1 NE 13 17 7 9 1017.9 1017.9 0.0
11/04:00pm 16.6 13.5 5.6 48 5.3 NE 11 17 6 9 1018.0 1018.0 0.0
11/03:30pm 17.1 14.3 5.1 45 5.8 N 9 13 5 7 1018.1 1018.1 0.0
11/03:00pm 17.3 14.3 5.9 47 5.6 NNW 11 17 6 9 1018.3 1018.3 0.0
11/02:30pm 16.9 13.7 4.9 45 5.7 N 11 20 6 11 1018.5 1018.5 0.0
11/02:00pm 16.9 13.7 4.9 45 5.7 NW 11 19 6 10 1018.5 1018.5 0.0
11/01:30pm 17.1 13.7 5.7 47 5.5 NNE 13 19 7 10 1018.7 1018.7 0.0
11/01:00pm 16.3 13.3 4.0 44 5.7 N 9 15 5 8 1019.1 1019.1 0.0
11/12:30pm 15.9 12.9 4.3 46 5.4 NNE 9 15 5 8 1019.9 1019.9 0.0
11/12:00pm 15.5 13.2 4.6 48 5.1 NNW 6 11 3 6 1020.6 1020.7 0.0
11/11:30am 15.5 13.3 5.1 50 4.9 N 6 11 3 6 1021.2 1021.3 0.0
11/11:00am 15.9 13.9 6.1 52 4.7 NNW 6 11 3 6 1021.3 1021.4 0.0
11/10:30am 14.3 13.7 7.6 64 3.3 CALM 0 6 0 3 1021.9 1022.0 0.0
11/10:00am 13.8 12.9 7.8 67 3.0 SW 2 7 1 4 1021.7 1021.8 0.0
11/09:30am 13.2 12.1 8.3 72 2.4 WSW 4 9 2 5 1021.7 1021.8 0.0
11/09:00am 12.1 10.3 8.0 76 2.0 SW 7 11 4 6 1021.9 1022.0 1.0
11/08:30am 11.1 10.6 7.8 80 1.6 CALM 0 0 0 0 1022.1 1022.2 1.0
11/08:00am 10.6 9.4 8.2 85 1.2 S 4 11 2 6 1021.9 1022.0 1.0
11/07:30am 9.9 9.6 8.7 92 0.6 CALM 0 0 0 0 1022.2 1022.3 1.0
11/07:00am 9.4 9.1 8.5 94 0.4 CALM 0 0 0 0 1022.2 1022.3 1.0
11/06:30am 9.1 8.6 8.0 93 0.5 CALM 0 0 0 0 1022.0 1022.1 1.0
11/06:00am 9.6 9.1 7.7 88 0.9 CALM 0 0 0 0 1021.8 1021.9 1.0
11/05:30am 9.6 9.0 7.5 87 1.0 CALM 0 0 0 0 1021.4 1021.5 1.0
11/05:00am 9.9 9.3 7.5 85 1.1 CALM 0 0 0 0 1021.3 1021.4 1.0
11/04:30am 10.1 9.6 7.7 85 1.2 CALM 0 0 0 0 1021.2 1021.3 1.0
11/04:00am 10.1 7.5 7.7 85 1.2 W 11 15 6 8 1021.2 1021.3 1.0
11/03:30am 10.4 7.0 7.8 84 1.3 WSW 15 20 8 11 1021.1 1021.2 1.0
11/03:00am 10.3 6.7 8.2 87 1.0 WSW 17 20 9 11 1021.3 1021.4 1.0
11/02:30am 10.4 7.5 8.2 86 1.1 WSW 13 19 7 10 1021.1 1021.2 1.0
11/02:00am 10.4 8.6 8.0 85 1.2 SSW 7 9 4 5 1021.4 1021.5 1.0
11/01:30am 10.6 8.5 8.2 85 1.2 SSW 9 15 5 8 1021.6 1021.7 1.0
11/01:00am 10.4 8.3 8.2 86 1.1 SW 9 15 5 8 1021.5 1021.6 1.0
11/12:30am 10.3 8.2 8.2 87 1.0 SSW 9 15 5 8 1021.3 1021.4 1.0
11/12:00am 10.2 7.8 8.5 89 0.8 SW 11 15 6 8 1021.4 1021.5 1.0
 
Date/Time
EST
Temp
°C
App
Temp
°C
Dew
Point
°C
Rel
Hum
%
Delta-T
°C
Wind Press
QNH
hPa
Press
MSL
hPa
Rain since
9am
mm
Dir  Spd
km/h
Gust
km/h
Spd
kts
Gust
kts
10/11:30pm 9.9 7.9 8.7 92 0.6 SW 9 13 5 7 1021.3 1021.4 1.0
10/11:00pm 9.3 7.7 8.8 97 0.2 SW 7 11 4 6 1021.3 1021.4 1.0
10/10:30pm 9.7 7.5 9.2 97 0.2 WSW 11 15 6 8 1021.4 1021.5 1.0
10/10:00pm 9.9 8.4 9.1 95 0.4 SW 7 9 4 5 1021.7 1021.8 1.0
10/09:44pm 9.9 9.7 9.0 94 0.4 CALM 0 6 0 3 1021.8 1021.9 1.0
10/09:30pm 9.9 8.3 8.8 93 0.5 ESE 7 13 4 7 1022.0 1022.1 0.8
10/09:27pm 10.0 8.1 8.9 93 0.5 ESE 9 13 5 7 1022.0 1022.1 0.8
10/09:00pm 10.4 8.4 8.5 88 0.9 WSW 9 13 5 7 1021.9 1022.0 0.6
10/08:30pm 10.7 7.7 7.9 83 1.4 SW 13 17 7 9 1021.7 1021.8 0.6
10/08:00pm 11.1 10.1 7.4 78 1.8 SSW 2 9 1 5 1021.5 1021.6 0.6
10/07:30pm 11.5 9.1 7.2 75 2.1 S 9 15 5 8 1021.3 1021.4 0.6
10/07:00pm 11.6 9.3 7.3 75 2.1 SSW 9 13 5 7 1021.2 1021.3 0.6
10/06:30pm 11.6 8.5 7.3 75 2.1 SSW 13 17 7 9 1021.0 1021.1 0.6
10/06:00pm 11.5 8.1 7.6 77 1.9 SSW 15 20 8 11 1020.7 1020.8 0.6
10/05:30pm 11.2 8.5 7.5 78 1.8 SSW 11 17 6 9 1020.3 1020.4 0.6
10/05:00pm 11.5 9.1 8.7 83 1.4 S 11 19 6 10 1020.0 1020.0 0.6
10/04:30pm 11.6 7.7 8.5 81 1.5 SSW 19 28 10 15 1019.9 1019.9 0.6
10/04:00pm 14.4 9.4 7.9 65 3.2 SSW 24 35 13 19 1019.2 1019.2 0.2
10/03:30pm 14.2 9.4 7.3 63 3.4 SSW 22 35 12 19 1018.9 1018.9 0.2
10/03:00pm 13.7 9.3 7.2 65 3.2 S 20 28 11 15 1018.8 1018.8 0.2
10/02:30pm 14.7 9.3 6.3 57 4.1 SSE 24 35 13 19 1018.8 1018.8 0.2
10/02:00pm 15.0 9.4 5.5 53 4.5 S 24 35 13 19 1018.5 1018.5 0.2
10/01:30pm 15.4 10.0 6.4 55 4.4 SSE 24 41 13 22 1018.4 1018.4 0.2
10/01:00pm 15.8 10.6 7.1 56 4.3 S 24 35 13 19 1018.2 1018.2 0.2
10/12:30pm 14.0 10.4 10.4 79 1.9 SSW 20 26 11 14 1018.4 1018.4 0.2
10/12:00pm 14.0 8.9 7.5 65 3.2 SSE 24 39 13 21 1018.7 1018.7 0.2
10/11:30am 13.9 8.0 7.4 65 3.2 S 28 41 15 22 1018.5 1018.5 0.2
10/11:12am 13.9 8.2 8.5 70 2.7 S 28 46 15 25 1018.5 1018.5 0.2
10/11:00am 14.3 8.7 8.7 69 2.8 S 28 43 15 23 1018.5 1018.5 0.2
10/10:30am 13.5 8.8 9.2 75 2.2 S 24 39 13 21 1018.6 1018.6 0.0
10/10:00am 13.5 7.9 8.8 73 2.4 S 28 44 15 24 1018.1 1018.1 0.0
10/09:30am 14.1 10.3 9.9 76 2.2 S 20 35 11 19 1017.7 1017.7 0.0
10/09:00am 13.6 9.3 9.3 75 2.2 SSW 22 35 12 19 1017.1 1017.1 43.8
10/08:30am 13.1 9.9 10.1 82 1.6 S 17 24 9 13 1016.7 1016.7 43.8
10/08:00am 11.9 8.7 10.1 89 0.9 S 17 22 9 12 1016.4 1016.4 43.8
10/07:30am 11.4 9.1 10.6 95 0.4 SSW 13 19 7 10 1015.9 1015.9 43.8
10/07:00am 11.1 7.5 10.5 96 0.3 S 20 33 11 18 1015.3 1015.4 43.8
10/06:42am 11.2 7.3 10.7 97 0.3 S 22 35 12 19 1015.0 1015.1 43.6
10/06:30am 11.2 7.7 10.9 98 0.2 S 20 32 11 17 1014.8 1014.9 43.4
10/06:19am 11.3 8.4 11.0 98 0.2 S 17 26 9 14 1014.7 1014.8 43.0
10/06:00am 11.4 8.0 11.1 98 0.2 S 20 33 11 18 1014.3 1014.4 42.6
10/05:30am 11.5 6.9 10.9 96 0.3 S 26 41 14 22 1013.5 1013.6 41.2
10/05:08am 11.6 7.0 11.1 97 0.3 S 26 39 14 21 1013.1 1013.2 40.2
10/05:00am 11.7 7.5 11.2 97 0.3 S 24 33 13 18 1013.1 1013.2 39.6
10/04:58am 11.7 7.9 11.2 97 0.3 S 22 32 12 17 1013.0 1013.1 39.4
10/04:55am 11.7 8.3 11.4 98 0.2 S 20 32 11 17 1013.0 1013.1 39.2
10/04:44am 11.7 7.5 11.2 97 0.3 S 24 33 13 18 1012.8 1012.9 38.8
10/04:30am 12.1 8.4 11.6 97 0.3 S 22 28 12 15 1012.5 1012.6 37.8
10/04:00am 11.8 8.0 11.0 95 0.4 S 22 32 12 17 1012.1 1012.2 36.8
10/03:30am 12.2 8.1 11.3 94 0.5 S 24 41 13 22 1011.7 1011.8 35.2
10/03:14am 12.1 8.3 11.3 95 0.4 S 22 35 12 19 1011.5 1011.6 34.6
10/03:05am 11.9 7.8 11.4 97 0.3 S 24 35 13 19 1011.5 1011.6 34.6
10/03:00am 11.8 7.6 11.2 96 0.3 S 24 33 13 18 1011.6 1011.7 34.2
10/02:59am 11.8 7.6 11.2 96 0.3 S 24 33 13 18 1011.5 1011.6 34.0
10/02:55am 12.0 7.8 11.1 94 0.5 S 24 35 13 19 1011.5 1011.6 33.4
10/02:43am 12.1 9.0 11.5 96 0.3 SSE 19 28 10 15 1011.6 1011.7 32.6
10/02:37am 12.1 8.9 11.3 95 0.4 S 19 26 10 14 1011.6 1011.7 32.0
10/02:30am 12.2 9.4 11.3 94 0.5 S 17 24 9 13 1011.3 1011.4 30.6
10/02:00am 12.2 9.6 10.8 91 0.7 S 15 22 8 12 1011.2 1011.3 29.8
10/01:30am 12.2 8.8 10.4 89 0.9 S 19 32 10 17 1011.3 1011.4 29.4
10/01:00am 12.4 9.6 10.0 85 1.2 S 15 24 8 13 1011.0 1011.1 29.2
10/12:30am 12.1 8.5 10.5 90 0.8 SSE 20 37 11 20 1010.8 1010.9 29.2
10/12:00am 12.5 8.6 10.7 89 0.9 SSE 22 33 12 18 1010.0 1010.1 29.2
 
Date/Time
EST
Temp
°C
App
Temp
°C
Dew
Point
°C
Rel
Hum
%
Delta-T
°C
Wind Press
QNH
hPa
Press
MSL
hPa
Rain since
9am
mm
Dir  Spd
km/h
Gust
km/h
Spd
kts
Gust
kts
09/11:30pm 12.4 9.7 10.3 87 1.1 S 15 30 8 16 1009.9 1010.0 29.0
09/11:00pm 12.7 8.6 10.1 84 1.3 SSE 22 33 12 18 1010.0 1010.1 28.8

Latest Capital City Observations: Canberra | Sydney | Melbourne | Brisbane | Adelaide | Perth | Hobart | Darwin

Other formats

Comma delimited format used in spreadsheet applications
http://www.bom.gov.au/fwo/IDN60901/IDN60901.94755.axf

JavaScript Object Notation format (JSON) in row-major order
http://www.bom.gov.au/fwo/IDN60901/IDN60901.94755.json

Data quality

Most of these data are generated automatically and are frequently updated. Quality checks on data are not normally performed. It is possible for incorrect values to appear. Refer to information at About Latest Weather Observations and please check the disclaimer before using these data.